Tropical Cyclones
[Index]
Main Index Home Page Stock Weather Photos Extreme Storms Discussion Storm News and Storm Chasing Reports Tropical Cyclones / Hurricanes / Typhoons Weather Data and Links Wild Fires / Bushfires Weather Observation Techniques Weather Picture Catalogue Tornado Pictures and Reports Stock Video Footage and DVDs for sale
Season 1997-1998 Tropical Cyclone YALI Track Map
Season 1997-1998 Summaries: [BoM-AU] [JTWC-AU] [JTWC-SIO] [JTWC-SPAC] [JTWC-SH]
<<- Previous TC | JTWC 1997-1998 Season | Next TC ->>

click for intensity scale information  Lat/long Grid: Show Hide

 Date Labels: Show Hide

Joint Typhoon Warning Centre Cyclone Data

Name: YALI

17 Mar 1998 06:00 UTC to 27 Mar 1998 18:00 UTC

    date/time    lat    long     hPa   cat  kts
1998-03-17 06   11.1   169.7                  15          
1998-03-17 12   11.3   169.4                  25          
1998-03-17 18   11.5   169.0                  25          
1998-03-18 00   11.6   168.4                  25          
1998-03-18 06   11.8   167.7                  25          
1998-03-18 12   12.0   167.0                  35          
1998-03-18 18   12.3   166.3                  35          
1998-03-19 00   12.6   165.6                  35          
1998-03-19 06   13.0   165.0                  35          
1998-03-19 12   13.4   164.5                  35          
1998-03-19 18   13.8   164.2                  35          
1998-03-20 00   14.3   164.3            1     40          
1998-03-20 06   14.6   164.5            1     45          
1998-03-20 12   15.0   164.7            2     55          
1998-03-20 18   15.5   165.0            2     55          
1998-03-21 00   16.0   165.4            2     65          
1998-03-21 06   16.5   165.8            3     75          
1998-03-21 12   16.9   166.3            3     80          
1998-03-21 18   17.4   167.0            3     85          
1998-03-22 00   18.0   167.8            3     90          
1998-03-22 06   18.8   168.6            3     90          
1998-03-22 12   19.6   169.4            2     70          
1998-03-22 18   20.1   169.8            2     65          
1998-03-23 00   20.7   169.9            2     65          
1998-03-23 06   21.3   169.5            2     60          
1998-03-23 12   22.2   168.8            2     60          
1998-03-23 18   23.3   167.3            2     60          
1998-03-24 00   23.9   165.4            2     60          
1998-03-24 06   24.3   164.1            2     60          
1998-03-24 12   24.5   163.2            2     60          
1998-03-24 18   24.8   162.4            2     60          
1998-03-25 00   25.1   161.7            2     55          
1998-03-25 06   25.5   161.0            1     50          
1998-03-25 12   25.8   160.3            1     45          
1998-03-25 18   25.9   159.5            1     45          
1998-03-26 00   26.0   158.7            1     45          
1998-03-26 06   26.4   158.4            1     40          
1998-03-26 12   27.0   158.2            1     40          
1998-03-26 18   28.2   158.1            1     40          
1998-03-27 00   30.1   158.0            1     45          
1998-03-27 06   31.8   158.2            1     45          
1998-03-27 12   33.2   158.8            1     50          
1998-03-27 18   34.6   159.4            1     50          
Winds are 1-min average.

Tropical cyclone tracks developed by Michael Bath using data from the Joint Typhoon Warning Centre Best Tracks and Google Maps.


[Australian Severe Weather index] [Copyright Notice] [Email Contacts] [Search This Site] [Privacy Policy]
Document: tropical_cyclone_yali.htm Updated: 18 September 2016